createdAt,value
2022-09-22T00:00:57.494Z,94.34
2022-09-22T00:03:24.281Z,94.79
2022-09-22T00:06:00.360Z,94.76
2022-09-22T00:08:28.394Z,95.14
2022-09-22T00:11:00.809Z,95.10
2022-09-22T00:13:27.346Z,94.85
2022-09-22T00:15:53.768Z,94.66
2022-09-22T00:18:20.204Z,94.52
2022-09-22T00:20:46.625Z,94.68
2022-09-22T00:23:13.065Z,94.62
2022-09-22T00:25:40.265Z,95.28
2022-09-22T00:28:07.037Z,95.22
2022-09-22T00:30:33.455Z,95.37
2022-09-22T00:33:00.062Z,96.18
2022-09-22T00:35:26.420Z,96.56
2022-09-22T00:37:52.781Z,97.55
2022-09-22T00:40:19.223Z,96.83
2022-09-22T00:42:45.673Z,96.47
2022-09-22T00:45:12.388Z,97.48
2022-09-22T00:47:46.286Z,97.10
2022-09-22T00:50:15.730Z,97.57
2022-09-22T00:52:54.038Z,97.48
2022-09-22T00:55:48.018Z,97.92
2022-09-22T00:58:18.152Z,97.81
2022-09-22T01:00:45.208Z,97.83
2022-09-22T01:03:16.584Z,97.67
2022-09-22T01:05:45.171Z,97.24
2022-09-22T01:08:13.468Z,97.83
2022-09-22T01:10:40.064Z,98.31
2022-09-22T01:13:20.607Z,98.10
2022-09-22T01:16:11.620Z,98.16
2022-09-22T01:19:17.055Z,98.53
2022-09-22T01:21:51.651Z,98.53
2022-09-22T01:24:18.095Z,100.00
2022-09-22T01:27:24.943Z,100.00
2022-09-22T01:30:34.832Z,100.00
2022-09-22T01:33:09.872Z,100.00
2022-09-22T01:36:04.113Z,99.24
2022-09-22T01:38:33.841Z,99.05
2022-09-22T01:41:08.299Z,99.20
2022-09-22T01:43:49.334Z,99.33
2022-09-22T01:46:39.122Z,99.11
2022-09-22T01:49:09.913Z,99.08
2022-09-22T01:51:48.885Z,99.18
2022-09-22T01:54:21.131Z,98.66
2022-09-22T01:56:54.698Z,99.11
2022-09-22T01:59:25.497Z,98.86
2022-09-22T02:02:01.915Z,98.31
2022-09-22T02:04:38.505Z,99.24
2022-09-22T02:07:12.625Z,98.94
2022-09-22T02:09:42.383Z,99.02
2022-09-22T02:12:09.003Z,99.55
2022-09-22T02:14:35.437Z,99.28
2022-09-22T02:17:02.553Z,98.79
2022-09-22T02:19:40.493Z,98.41
2022-09-22T02:22:09.105Z,98.50
2022-09-22T02:24:38.087Z,98.44
2022-09-22T02:27:14.939Z,98.04
2022-09-22T02:29:46.606Z,99.24
2022-09-22T02:32:16.532Z,99.90
2022-09-22T02:34:45.732Z,99.68
2022-09-22T02:37:36.182Z,99.78
2022-09-22T02:40:26.818Z,100.00
2022-09-22T02:43:03.881Z,100.00
2022-09-22T02:45:43.925Z,100.00
2022-09-22T02:48:18.168Z,100.00
2022-09-22T02:50:45.405Z,100.00
2022-09-22T02:53:15.244Z,100.00
2022-09-22T02:55:42.689Z,100.00
2022-09-22T02:58:09.888Z,100.00
2022-09-22T03:00:37.126Z,100.00
2022-09-22T03:03:04.357Z,100.00
2022-09-22T03:05:30.781Z,100.00
2022-09-22T03:07:57.717Z,100.00
2022-09-22T03:10:24.140Z,100.00
2022-09-22T03:13:14.864Z,100.00
2022-09-22T03:15:36.934Z,100.00
2022-09-22T03:18:04.242Z,100.00
2022-09-22T03:20:31.572Z,100.00
2022-09-22T03:22:58.180Z,100.00
2022-09-22T03:25:24.734Z,100.00
2022-09-22T03:27:51.093Z,100.00
2022-09-22T03:30:17.582Z,100.00
2022-09-22T03:32:44.083Z,100.00
2022-09-22T03:35:10.529Z,100.00
2022-09-22T03:37:36.929Z,100.00
2022-09-22T03:40:04.686Z,100.00
2022-09-22T03:42:32.827Z,100.00
2022-09-22T03:44:59.312Z,100.00
2022-09-22T03:47:25.732Z,100.00
2022-09-22T03:49:52.141Z,100.00
2022-09-22T03:52:18.505Z,100.00
2022-09-22T03:54:44.901Z,100.00
2022-09-22T03:57:11.505Z,100.00
2022-09-22T03:59:37.984Z,100.00
2022-09-22T04:02:04.590Z,100.00
2022-09-22T04:04:31.110Z,100.00
2022-09-22T04:06:57.569Z,100.00
2022-09-22T04:09:24.081Z,100.00
2022-09-22T04:11:50.595Z,100.00
2022-09-22T04:14:16.962Z,100.00
2022-09-22T04:16:43.790Z,100.00
2022-09-22T04:19:10.332Z,100.00
2022-09-22T04:21:36.738Z,100.00
2022-09-22T04:24:03.420Z,100.00
2022-09-22T04:26:29.863Z,100.00
2022-09-22T04:28:56.233Z,100.00
2022-09-22T04:31:23.013Z,100.00
2022-09-22T04:33:49.479Z,100.00
2022-09-22T04:36:15.970Z,100.00
2022-09-22T04:38:42.371Z,100.00
2022-09-22T04:41:08.784Z,100.00
2022-09-22T04:43:35.141Z,100.00
2022-09-22T04:46:01.767Z,100.00
2022-09-22T04:48:28.665Z,100.00
2022-09-22T04:50:55.061Z,100.00
2022-09-22T04:53:21.439Z,100.00
2022-09-22T04:55:49.671Z,100.00
2022-09-22T04:58:16.255Z,100.00
2022-09-22T05:00:42.829Z,100.00
2022-09-22T05:03:11.200Z,100.00
2022-09-22T05:05:38.110Z,100.00
2022-09-22T05:08:05.132Z,100.00
2022-09-22T05:10:34.317Z,100.00
2022-09-22T05:13:00.963Z,100.00
2022-09-22T05:15:30.399Z,100.00
2022-09-22T05:17:56.968Z,100.00
2022-09-22T05:20:23.539Z,100.00
2022-09-22T05:22:50.140Z,100.00
2022-09-22T05:25:18.640Z,100.00
2022-09-22T05:27:50.186Z,100.00
2022-09-22T05:30:17.316Z,100.00
2022-09-22T05:32:45.778Z,100.00
2022-09-22T05:35:13.669Z,100.00
2022-09-22T05:37:43.653Z,100.00
2022-09-22T05:40:11.163Z,100.00
2022-09-22T05:42:43.667Z,100.00
2022-09-22T05:45:10.666Z,100.00
2022-09-22T05:47:37.940Z,100.00
2022-09-22T05:50:04.970Z,100.00
2022-09-22T05:52:31.860Z,100.00
2022-09-22T05:54:58.333Z,100.00
2022-09-22T05:57:27.652Z,100.00
2022-09-22T05:59:54.875Z,100.00
2022-09-22T06:02:26.176Z,100.00
2022-09-22T06:04:53.430Z,100.00
2022-09-22T06:07:20.667Z,100.00
2022-09-22T06:09:48.394Z,100.00
2022-09-22T06:12:15.599Z,100.00
2022-09-22T06:14:42.012Z,100.00
2022-09-22T06:17:11.816Z,100.00
2022-09-22T06:19:39.170Z,100.00
2022-09-22T06:22:05.634Z,100.00
2022-09-22T06:24:32.295Z,100.00
2022-09-22T06:26:58.708Z,100.00
2022-09-22T06:29:25.934Z,100.00
2022-09-22T06:31:52.606Z,100.00
2022-09-22T06:34:19.235Z,100.00
2022-09-22T06:36:45.593Z,100.00
2022-09-22T06:39:13.094Z,100.00
2022-09-22T06:41:39.759Z,100.00
2022-09-22T06:44:06.789Z,100.00
2022-09-22T06:46:38.120Z,100.00
2022-09-22T06:49:04.581Z,100.00
2022-09-22T06:51:33.648Z,100.00
2022-09-22T06:54:04.076Z,100.00
2022-09-22T06:56:39.789Z,100.00
2022-09-22T06:59:12.780Z,100.00
2022-09-22T07:01:43.400Z,100.00
2022-09-22T07:04:10.925Z,100.00
2022-09-22T07:06:37.390Z,100.00
2022-09-22T07:09:04.777Z,100.00
2022-09-22T07:11:31.339Z,100.00
2022-09-22T07:13:58.747Z,100.00
2022-09-22T07:16:26.707Z,100.00
2022-09-22T07:18:55.891Z,100.00
2022-09-22T07:21:27.504Z,100.00
2022-09-22T07:23:55.720Z,100.00
2022-09-22T07:26:29.707Z,100.00
2022-09-22T07:28:59.072Z,100.00
2022-09-22T07:31:29.725Z,100.00
2022-09-22T07:33:58.930Z,100.00
2022-09-22T07:36:26.550Z,100.00
2022-09-22T07:38:57.599Z,100.00
2022-09-22T07:41:29.954Z,100.00
2022-09-22T07:44:21.733Z,100.00
2022-09-22T07:46:48.477Z,98.82
2022-09-22T07:49:15.308Z,97.09
2022-09-22T07:51:42.094Z,95.04
2022-09-22T07:54:08.885Z,93.84
2022-09-22T07:56:45.276Z,91.75
2022-09-22T07:59:14.100Z,86.57
2022-09-22T08:01:44.152Z,80.27
2022-09-22T08:04:12.421Z,80.07
2022-09-22T08:06:38.975Z,81.28
2022-09-22T08:09:08.193Z,79.03
2022-09-22T08:11:34.663Z,77.74
2022-09-22T08:14:02.769Z,78.53
2022-09-22T08:16:33.914Z,77.16
2022-09-22T08:19:10.678Z,76.51
2022-09-22T08:21:47.763Z,78.50
2022-09-22T08:24:16.250Z,78.98
2022-09-22T08:26:48.375Z,76.94
2022-09-22T08:29:15.506Z,74.90
2022-09-22T08:31:42.309Z,75.05
2022-09-22T08:34:09.340Z,74.75
2022-09-22T08:36:37.134Z,75.25
2022-09-22T08:39:05.057Z,68.54
2022-09-22T08:41:38.336Z,70.48
2022-09-22T08:44:08.711Z,72.67
2022-09-22T08:46:38.231Z,73.23
2022-09-22T08:49:33.856Z,66.81
2022-09-22T08:52:06.014Z,69.82
2022-09-22T08:54:32.986Z,68.94
2022-09-22T08:57:41.037Z,67.74
2022-09-22T09:00:10.354Z,69.17
2022-09-22T09:02:49.274Z,66.38
2022-09-22T09:05:42.346Z,65.38
2022-09-22T09:08:36.722Z,65.92
2022-09-22T09:11:19.281Z,63.83
2022-09-22T09:14:07.438Z,65.34
2022-09-22T09:16:48.871Z,65.36
2022-09-22T09:19:37.800Z,63.73
2022-09-22T09:22:18.923Z,62.60
2022-09-22T09:27:40.786Z,62.40
2022-09-22T09:30:11.873Z,63.56
2022-09-22T09:32:52.878Z,61.27
2022-09-22T09:35:46.045Z,63.42
2022-09-22T09:38:18.808Z,62.84
2022-09-22T09:40:54.202Z,62.65
2022-09-22T09:43:24.007Z,62.43
2022-09-22T09:46:11.591Z,61.75
2022-09-22T09:48:52.917Z,62.33
2022-09-22T09:51:19.963Z,61.51
2022-09-22T09:53:49.543Z,59.06
2022-09-22T09:56:21.833Z,61.47
2022-09-22T09:59:45.029Z,58.59
2022-09-22T10:02:14.780Z,59.59
2022-09-22T10:04:48.324Z,58.20
2022-09-22T10:07:21.452Z,58.22
2022-09-22T10:09:49.953Z,56.98
2022-09-22T10:12:34.409Z,55.94
2022-09-22T10:15:01.761Z,57.62
2022-09-22T10:17:28.367Z,55.55
2022-09-22T10:20:16.274Z,55.53
2022-09-22T10:22:42.714Z,57.45
2022-09-22T10:25:19.400Z,53.98
2022-09-22T10:28:09.265Z,55.35
2022-09-22T10:30:37.400Z,54.81
2022-09-22T10:33:11.706Z,53.12
2022-09-22T10:35:39.084Z,48.67
2022-09-22T10:38:14.217Z,52.76
2022-09-22T10:40:44.628Z,51.76
2022-09-22T10:43:26.571Z,51.39
2022-09-22T10:46:07.454Z,53.31
2022-09-22T10:48:43.992Z,54.28
2022-09-22T10:51:34.867Z,51.22
2022-09-22T10:54:43.493Z,49.23
2022-09-22T10:57:31.907Z,50.20
2022-09-22T11:00:19.099Z,47.33
2022-09-22T11:03:16.630Z,49.64
2022-09-22T11:06:20.535Z,50.33
2022-09-22T11:09:45.264Z,47.40
2022-09-22T11:12:36.042Z,49.17
2022-09-22T11:15:30.694Z,48.64
2022-09-22T11:18:03.549Z,49.19
2022-09-22T11:20:38.584Z,49.05
2022-09-22T11:23:43.556Z,51.14
2022-09-22T11:26:15.801Z,47.92
2022-09-22T11:29:00.249Z,46.71
2022-09-22T11:31:51.826Z,47.74
2022-09-22T11:34:35.491Z,46.81
2022-09-22T11:37:38.137Z,47.14
2022-09-22T11:40:27.060Z,47.57
2022-09-22T11:43:04.722Z,45.55
2022-09-22T11:45:43.719Z,48.84
2022-09-22T11:48:26.116Z,45.18
2022-09-22T11:51:14.248Z,45.50
2022-09-22T11:53:53.375Z,44.74
2022-09-22T11:56:44.297Z,44.47
2022-09-22T11:59:26.026Z,43.36
2022-09-22T12:01:55.506Z,44.85
2022-09-22T12:04:54.940Z,43.20
2022-09-22T12:07:29.875Z,44.13
2022-09-22T12:10:06.522Z,42.69
2022-09-22T12:12:34.152Z,45.73
2022-09-22T12:15:15.909Z,46.41
2022-09-22T12:18:22.120Z,42.33
2022-09-22T12:21:02.420Z,41.69
2022-09-22T12:23:47.586Z,40.64
2022-09-22T12:26:31.414Z,41.91
2022-09-22T12:28:59.560Z,42.42
2022-09-22T12:31:37.795Z,43.40
2022-09-22T12:34:14.769Z,44.12
2022-09-22T12:36:42.016Z,44.52
2022-09-22T12:39:13.450Z,44.62
2022-09-22T12:41:47.977Z,45.68
2022-09-22T12:44:43.206Z,40.92
2022-09-22T12:47:24.790Z,42.87
2022-09-22T12:49:56.560Z,45.22
2022-09-22T12:52:41.028Z,38.99
2022-09-22T12:55:27.865Z,42.18
2022-09-22T12:57:59.812Z,40.20
2022-09-22T13:00:41.051Z,40.95
2022-09-22T13:03:25.663Z,39.42
2022-09-22T13:05:55.279Z,39.18
2022-09-22T13:08:24.650Z,39.18
2022-09-22T13:11:00.025Z,38.80
2022-09-22T13:13:32.136Z,40.16
2022-09-22T13:16:01.582Z,38.85
2022-09-22T13:18:41.668Z,38.10
2022-09-22T13:21:14.222Z,38.60
2022-09-22T13:23:58.926Z,35.96
2022-09-22T13:26:30.081Z,41.02
2022-09-22T13:29:12.429Z,36.52
2022-09-22T13:31:54.239Z,37.89
2022-09-22T13:34:25.773Z,36.98
2022-09-22T13:36:56.808Z,39.91
2022-09-22T13:39:25.585Z,43.91
2022-09-22T13:41:57.303Z,41.31
2022-09-22T13:44:29.300Z,39.44
2022-09-22T13:46:58.124Z,37.41
2022-09-22T13:49:30.907Z,34.69
2022-09-22T13:52:12.587Z,34.74
2022-09-22T13:54:40.451Z,35.31
2022-09-22T13:57:19.649Z,34.60
2022-09-22T13:59:46.106Z,35.81
2022-09-22T14:02:13.909Z,33.60
2022-09-22T14:04:53.970Z,31.81
2022-09-22T14:07:22.145Z,35.50
2022-09-22T14:09:49.738Z,36.16
2022-09-22T14:12:17.250Z,36.82
2022-09-22T14:14:43.716Z,35.40
2022-09-22T14:17:25.461Z,38.31
2022-09-22T14:20:05.158Z,37.86
2022-09-22T14:22:40.160Z,37.60
2022-09-22T14:25:19.281Z,37.37
2022-09-22T14:27:55.301Z,37.34
2022-09-22T14:30:31.072Z,36.52
2022-09-22T14:33:00.886Z,35.37
2022-09-22T14:35:31.632Z,35.81
2022-09-22T14:38:08.940Z,34.49
2022-09-22T14:40:50.481Z,32.84
2022-09-22T14:43:27.498Z,34.13
2022-09-22T14:46:06.045Z,41.18
2022-09-22T14:48:38.369Z,46.16
2022-09-22T14:51:26.142Z,45.72
2022-09-22T14:53:57.517Z,48.65
2022-09-22T14:56:29.028Z,47.97
2022-09-22T14:58:59.181Z,48.49
2022-09-22T15:01:51.375Z,48.30
2022-09-22T15:04:24.009Z,48.48
2022-09-22T15:06:52.889Z,47.36
2022-09-22T15:09:26.452Z,48.33
2022-09-22T15:11:56.366Z,48.21
2022-09-22T15:14:42.207Z,49.57
2022-09-22T15:17:55.392Z,49.95
2022-09-22T15:20:42.907Z,50.12
2022-09-22T15:23:23.994Z,48.18
2022-09-22T15:25:51.015Z,48.88
2022-09-22T15:28:23.691Z,49.30
2022-09-22T15:30:52.612Z,49.59
2022-09-22T15:33:20.578Z,49.87
2022-09-22T15:36:08.610Z,48.60
2022-09-22T15:38:37.837Z,49.04
2022-09-22T15:41:04.329Z,49.17
2022-09-22T15:43:31.187Z,49.15
2022-09-22T15:46:03.786Z,48.88
2022-09-22T15:48:38.287Z,49.26
2022-09-22T15:51:22.947Z,48.93
2022-09-22T15:53:50.022Z,49.40
2022-09-22T15:56:20.857Z,49.84
2022-09-22T15:58:49.390Z,49.90
2022-09-22T16:01:17.960Z,49.77
2022-09-22T16:03:44.903Z,49.21
2022-09-22T16:06:15.527Z,50.61
2022-09-22T16:08:47.053Z,50.92
2022-09-22T16:11:15.967Z,50.46
2022-09-22T16:13:42.475Z,51.56
2022-09-22T16:16:10.343Z,51.03
2022-09-22T16:18:41.684Z,52.83
2022-09-22T16:21:26.600Z,54.24
2022-09-22T16:23:58.667Z,53.31
2022-09-22T16:26:29.384Z,54.45
2022-09-22T16:28:56.246Z,53.92
2022-09-22T16:31:22.984Z,56.21
2022-09-22T16:33:57.073Z,54.02
2022-09-22T16:36:26.074Z,55.17
2022-09-22T16:38:53.158Z,56.28
2022-09-22T16:41:21.080Z,57.07
2022-09-22T16:43:48.741Z,57.20
2022-09-22T16:46:31.203Z,57.47
2022-09-22T16:49:00.545Z,56.91
2022-09-22T16:51:28.167Z,57.94
2022-09-22T16:53:54.731Z,56.91
2022-09-22T16:56:26.393Z,59.02
2022-09-22T16:58:53.258Z,59.62
2022-09-22T17:01:20.412Z,58.60
2022-09-22T17:03:49.426Z,60.21
2022-09-22T17:06:18.394Z,59.20
2022-09-22T17:08:45.839Z,60.11
2022-09-22T17:11:16.413Z,60.37
2022-09-22T17:13:43.965Z,61.68
2022-09-22T17:16:25.036Z,61.27
2022-09-22T17:18:52.460Z,60.62
2022-09-22T17:21:21.911Z,60.44
2022-09-22T17:23:53.952Z,63.26
2022-09-22T17:26:21.071Z,61.53
2022-09-22T17:28:50.441Z,63.98
2022-09-22T17:31:16.867Z,62.57
2022-09-22T17:33:52.009Z,61.90
2022-09-22T17:36:20.573Z,62.29
2022-09-22T17:38:50.611Z,63.68
2022-09-22T17:41:19.766Z,66.00
2022-09-22T17:43:48.392Z,63.61
2022-09-22T17:46:17.705Z,62.63
2022-09-22T17:49:02.848Z,62.69
2022-09-22T17:51:51.792Z,63.36
2022-09-22T17:54:45.929Z,63.26
2022-09-22T17:57:15.140Z,63.60
2022-09-22T17:59:41.910Z,62.85
2022-09-22T18:02:14.294Z,62.98
2022-09-22T18:04:41.881Z,63.43
2022-09-22T18:07:11.077Z,63.65
2022-09-22T18:09:39.829Z,63.68
2022-09-22T18:12:09.899Z,63.49
2022-09-22T18:14:41.016Z,63.81
2022-09-22T18:17:09.056Z,63.94
2022-09-22T18:19:36.795Z,63.58
2022-09-22T18:22:06.111Z,63.92
2022-09-22T18:24:33.685Z,64.21
2022-09-22T18:27:02.780Z,64.36
2022-09-22T18:29:29.401Z,64.46
2022-09-22T18:31:58.824Z,65.09
2022-09-22T18:34:31.690Z,64.58
2022-09-22T18:37:02.347Z,64.58
2022-09-22T18:39:29.247Z,64.83
2022-09-22T18:41:55.598Z,64.39
2022-09-22T18:44:22.724Z,65.15
2022-09-22T18:46:49.297Z,65.77
2022-09-22T18:49:16.556Z,65.53
2022-09-22T18:51:49.037Z,65.56
2022-09-22T18:54:21.351Z,65.62
2022-09-22T18:56:49.529Z,65.83
2022-09-22T18:59:18.850Z,65.90
2022-09-22T19:01:46.558Z,66.09
2022-09-22T19:04:17.096Z,66.33
2022-09-22T19:07:03.064Z,66.57
2022-09-22T19:09:29.417Z,67.06
2022-09-22T19:11:55.944Z,67.00
2022-09-22T19:14:22.647Z,66.98
2022-09-22T19:16:49.086Z,67.00
2022-09-22T19:19:16.631Z,66.86
2022-09-22T19:21:43.292Z,67.40
2022-09-22T19:24:10.871Z,67.70
2022-09-22T19:26:43.993Z,67.74
2022-09-22T19:29:12.177Z,67.85
2022-09-22T19:31:40.996Z,68.09
2022-09-22T19:34:08.815Z,68.14
2022-09-22T19:36:36.032Z,68.32
2022-09-22T19:39:02.997Z,68.54
2022-09-22T19:41:29.368Z,68.81
2022-09-22T19:43:56.653Z,69.16
2022-09-22T19:46:24.418Z,69.36
2022-09-22T19:48:51.147Z,69.54
2022-09-22T19:51:17.819Z,69.35
2022-09-22T19:53:44.261Z,69.42
2022-09-22T19:56:10.619Z,69.58
2022-09-22T19:58:37.456Z,69.86
2022-09-22T20:01:07.688Z,70.21
2022-09-22T20:03:34.289Z,70.21
2022-09-22T20:06:00.717Z,70.36
2022-09-22T20:08:27.374Z,71.13
2022-09-22T20:11:16.361Z,70.56
2022-09-22T20:14:01.100Z,71.00
2022-09-22T20:16:28.074Z,71.42
2022-09-22T20:18:54.980Z,70.84
2022-09-22T20:21:21.527Z,70.94
2022-09-22T20:23:47.910Z,70.58
2022-09-22T20:26:14.272Z,71.19
2022-09-22T20:28:41.421Z,71.23
2022-09-22T20:31:11.844Z,72.12
2022-09-22T20:33:38.837Z,71.86
2022-09-22T20:36:05.992Z,71.98
2022-09-22T20:38:36.753Z,72.29
2022-09-22T20:41:03.213Z,72.23
2022-09-22T20:43:29.768Z,72.73
2022-09-22T20:46:05.214Z,72.10
2022-09-22T20:48:33.110Z,72.94
2022-09-22T20:51:02.871Z,73.40
2022-09-22T20:53:32.878Z,74.31
2022-09-22T20:56:03.394Z,74.15
2022-09-22T20:58:32.801Z,73.78
2022-09-22T21:01:00.185Z,73.82
2022-09-22T21:03:26.661Z,72.38
2022-09-22T21:05:59.010Z,73.28
2022-09-22T21:08:43.972Z,73.58
2022-09-22T21:11:14.851Z,74.35
2022-09-22T21:13:41.821Z,74.57
2022-09-22T21:16:09.454Z,75.45
2022-09-22T21:18:37.352Z,75.74
2022-09-22T21:21:05.825Z,75.78
2022-09-22T21:23:32.947Z,76.32
2022-09-22T21:26:02.162Z,75.91
2022-09-22T21:28:30.059Z,75.67
2022-09-22T21:30:57.961Z,76.19
2022-09-22T21:33:26.203Z,75.90
2022-09-22T21:36:08.541Z,76.54
2022-09-22T21:38:36.628Z,76.68
2022-09-22T21:41:05.869Z,77.18
2022-09-22T21:43:32.794Z,76.77
2022-09-22T21:46:05.068Z,76.67
2022-09-22T21:48:36.115Z,76.50
2022-09-22T21:51:07.746Z,76.28
2022-09-22T21:53:36.325Z,77.44
2022-09-22T21:56:07.103Z,78.33
2022-09-22T21:58:40.033Z,77.27
2022-09-22T22:01:14.556Z,78.56
2022-09-22T22:03:44.861Z,83.96
2022-09-22T22:06:43.053Z,83.52
2022-09-22T22:09:12.308Z,78.96
2022-09-22T22:11:48.785Z,76.61
2022-09-22T22:14:18.443Z,79.43
2022-09-22T22:16:47.566Z,79.33
2022-09-22T22:19:17.617Z,77.17
2022-09-22T22:21:44.558Z,76.88
2022-09-22T22:24:28.430Z,77.50
2022-09-22T22:26:58.352Z,77.85
2022-09-22T22:29:26.499Z,76.41
2022-09-22T22:31:53.623Z,78.59
2022-09-22T22:34:22.388Z,77.44
2022-09-22T22:36:49.625Z,79.22
2022-09-22T22:39:16.532Z,78.30
2022-09-22T22:41:43.352Z,78.67
2022-09-22T22:44:10.132Z,78.61
2022-09-22T22:46:37.290Z,77.39
2022-09-22T22:49:04.834Z,77.76
2022-09-22T22:51:31.397Z,77.70
2022-09-22T22:53:57.773Z,78.56
2022-09-22T22:56:26.591Z,78.67
2022-09-22T22:58:53.800Z,78.27
2022-09-22T23:01:22.411Z,77.62
2022-09-22T23:04:07.596Z,77.25
2022-09-22T23:06:37.770Z,80.11
2022-09-22T23:09:06.743Z,79.05
2022-09-22T23:11:37.018Z,79.43
2022-09-22T23:14:06.986Z,79.09
2022-09-22T23:16:39.648Z,79.22
2022-09-22T23:19:08.606Z,79.77
2022-09-22T23:21:36.143Z,81.23
2022-09-22T23:24:03.740Z,81.41
2022-09-22T23:26:30.730Z,83.18
2022-09-22T23:29:01.369Z,80.27
2022-09-22T23:31:28.257Z,84.15
2022-09-22T23:33:54.996Z,85.44
2022-09-22T23:36:26.773Z,84.51
2022-09-22T23:38:55.079Z,83.34
2022-09-22T23:41:21.704Z,80.45
2022-09-22T23:43:48.147Z,80.27
2022-09-22T23:46:14.663Z,79.84
2022-09-22T23:48:41.386Z,79.74
2022-09-22T23:51:07.880Z,79.18
2022-09-22T23:53:35.935Z,79.96
2022-09-22T23:56:03.683Z,80.67
2022-09-22T23:58:30.634Z,80.19
